createdAt,value
2018-08-13T00:01:05.569Z,51.20
2018-08-13T00:03:34.354Z,51.20
2018-08-13T00:06:02.993Z,50.70
2018-08-13T00:08:31.471Z,50.90
2018-08-13T00:11:01.328Z,51.10
2018-08-13T00:13:29.858Z,50.50
2018-08-13T00:15:58.730Z,49.80
2018-08-13T00:18:27.191Z,50.00
2018-08-13T00:20:56.780Z,49.70
2018-08-13T00:23:25.239Z,49.60
2018-08-13T00:25:54.104Z,49.60
2018-08-13T00:28:22.533Z,49.50
2018-08-13T00:30:52.600Z,49.10
2018-08-13T00:33:20.996Z,49.10
2018-08-13T00:35:49.561Z,49.20
2018-08-13T00:38:17.916Z,49.00
2018-08-13T00:40:47.552Z,49.30
2018-08-13T00:43:16.412Z,49.40
2018-08-13T00:45:44.981Z,49.20
2018-08-13T00:48:13.423Z,49.00
2018-08-13T00:50:42.152Z,48.90
2018-08-13T00:53:10.933Z,49.00
2018-08-13T00:55:39.402Z,48.90
2018-08-13T00:58:08.810Z,48.90
2018-08-13T01:00:37.497Z,49.30
2018-08-13T01:03:07.220Z,49.20
2018-08-13T01:05:36.411Z,49.20
2018-08-13T01:08:04.958Z,48.90
2018-08-13T01:10:33.503Z,48.90
2018-08-13T01:13:02.163Z,48.90
2018-08-13T01:15:30.750Z,49.00
2018-08-13T01:17:59.189Z,49.00
2018-08-13T01:20:28.062Z,49.40
2018-08-13T01:22:56.502Z,49.70
2018-08-13T01:25:24.992Z,49.30
2018-08-13T01:27:53.816Z,49.30
2018-08-13T01:30:22.452Z,49.60
2018-08-13T01:32:51.296Z,49.10
2018-08-13T01:35:20.170Z,49.00
2018-08-13T01:37:48.626Z,48.80
2018-08-13T01:40:17.148Z,49.00
2018-08-13T01:42:45.981Z,49.30
2018-08-13T01:45:14.547Z,49.00
2018-08-13T01:47:43.349Z,49.40
2018-08-13T01:50:12.974Z,50.20
2018-08-13T01:52:41.534Z,50.00
2018-08-13T01:55:10.933Z,49.70
2018-08-13T01:57:39.428Z,50.20
2018-08-13T02:00:10.923Z,50.40
2018-08-13T02:02:39.456Z,50.60
2018-08-13T02:05:08.153Z,50.80
2018-08-13T02:07:36.803Z,50.60
2018-08-13T02:10:06.529Z,49.40
2018-08-13T02:12:35.011Z,49.30
2018-08-13T02:15:03.605Z,49.70
2018-08-13T02:17:32.072Z,50.60
2018-08-13T02:20:00.651Z,52.10
2018-08-13T02:22:29.148Z,53.40
2018-08-13T02:24:57.727Z,53.60
2018-08-13T02:27:26.248Z,54.60
2018-08-13T02:29:55.900Z,54.80
2018-08-13T02:32:24.401Z,55.00
2018-08-13T02:34:52.945Z,55.80
2018-08-13T02:37:21.739Z,54.70
2018-08-13T02:39:50.608Z,55.10
2018-08-13T02:42:19.140Z,55.00
2018-08-13T02:44:47.679Z,55.70
2018-08-13T02:47:16.121Z,55.00
2018-08-13T02:49:44.708Z,54.70
2018-08-13T02:52:13.151Z,55.20
2018-08-13T02:54:41.707Z,56.00
2018-08-13T02:57:10.448Z,56.40
2018-08-13T02:59:39.413Z,56.70
2018-08-13T03:02:08.241Z,55.90
2018-08-13T03:04:37.565Z,56.40
2018-08-13T03:07:06.740Z,57.70
2018-08-13T03:09:35.255Z,58.00
2018-08-13T03:12:03.749Z,58.60
2018-08-13T03:14:33.317Z,57.00
2018-08-13T03:17:02.089Z,57.30
2018-08-13T03:19:30.643Z,57.90
2018-08-13T03:21:59.120Z,57.60
2018-08-13T03:24:27.742Z,58.60
2018-08-13T03:26:56.285Z,58.20
2018-08-13T03:29:24.786Z,57.30
2018-08-13T03:31:53.211Z,58.10
2018-08-13T03:34:21.789Z,57.30
2018-08-13T03:36:50.218Z,58.10
2018-08-13T03:39:18.900Z,57.10
2018-08-13T03:41:47.393Z,57.90
2018-08-13T03:44:15.958Z,57.50
2018-08-13T03:46:44.447Z,58.80
2018-08-13T03:49:13.008Z,57.50
2018-08-13T03:51:42.175Z,58.00
2018-08-13T03:54:10.722Z,58.80
2018-08-13T03:56:39.277Z,58.70
2018-08-13T03:59:08.422Z,58.90
2018-08-13T04:01:37.408Z,58.00
2018-08-13T04:04:07.812Z,57.70
2018-08-13T04:06:36.692Z,58.70
2018-08-13T04:09:08.015Z,59.50
2018-08-13T04:11:37.772Z,59.20
2018-08-13T04:14:07.380Z,59.00
2018-08-13T04:16:36.063Z,59.40
2018-08-13T04:19:04.689Z,59.50
2018-08-13T04:21:33.481Z,59.40
2018-08-13T04:24:01.993Z,59.00
2018-08-13T04:26:31.077Z,58.60
2018-08-13T04:29:00.036Z,58.30
2018-08-13T04:31:28.481Z,57.80
2018-08-13T04:33:57.141Z,57.70
2018-08-13T04:36:25.638Z,57.60
2018-08-13T04:38:54.252Z,58.50
2018-08-13T04:41:23.416Z,58.10
2018-08-13T04:43:52.080Z,58.10
2018-08-13T04:46:20.518Z,58.20
2018-08-13T04:48:49.091Z,58.70
2018-08-13T04:51:17.522Z,58.90
2018-08-13T04:53:46.113Z,58.70
2018-08-13T04:56:14.676Z,58.90
2018-08-13T04:58:43.180Z,58.90
2018-08-13T05:01:11.620Z,57.90
2018-08-13T05:03:40.143Z,59.20
2018-08-13T05:06:09.505Z,59.60
2018-08-13T05:08:38.631Z,59.20
2018-08-13T05:11:07.783Z,57.80
2018-08-13T05:13:36.809Z,59.20
2018-08-13T05:16:05.290Z,57.80
2018-08-13T05:18:33.929Z,59.40
2018-08-13T05:21:02.378Z,59.20
2018-08-13T05:23:31.006Z,59.90
2018-08-13T05:25:59.471Z,60.10
2018-08-13T05:28:28.031Z,58.70
2018-08-13T05:30:56.493Z,60.30
2018-08-13T05:33:24.921Z,61.10
2018-08-13T05:35:53.330Z,61.60
2018-08-13T05:38:21.936Z,61.00
2018-08-13T05:40:50.645Z,60.10
2018-08-13T05:43:19.219Z,58.60
2018-08-13T05:45:47.635Z,57.70
2018-08-13T05:48:16.122Z,58.00
2018-08-13T05:50:45.482Z,56.20
2018-08-13T05:53:15.223Z,55.80
2018-08-13T05:55:44.593Z,57.00
2018-08-13T05:58:13.947Z,55.90
2018-08-13T06:00:43.139Z,55.90
2018-08-13T06:03:11.649Z,55.90
2018-08-13T06:05:40.320Z,56.30
2018-08-13T06:08:08.893Z,56.70
2018-08-13T06:10:37.671Z,57.90
2018-08-13T06:13:06.227Z,57.90
2018-08-13T06:15:35.433Z,57.70
2018-08-13T06:18:04.284Z,57.70
2018-08-13T06:20:32.944Z,60.20
2018-08-13T06:23:01.728Z,60.40
2018-08-13T06:25:30.260Z,59.10
2018-08-13T06:27:59.094Z,58.20
2018-08-13T06:30:27.559Z,57.50
2018-08-13T06:32:56.325Z,57.40
2018-08-13T06:35:24.751Z,57.90
2018-08-13T06:37:53.246Z,57.90
2018-08-13T06:40:21.666Z,59.10
2018-08-13T06:42:50.218Z,58.30
2018-08-13T06:45:19.477Z,58.40
2018-08-13T06:47:48.060Z,58.30
2018-08-13T06:50:16.537Z,57.00
2018-08-13T06:52:45.390Z,56.50
2018-08-13T06:55:13.860Z,56.40
2018-08-13T06:57:42.755Z,56.20
2018-08-13T07:00:13.338Z,56.30
2018-08-13T07:02:42.216Z,56.40
2018-08-13T07:05:11.220Z,56.50
2018-08-13T07:07:40.392Z,56.30
2018-08-13T07:10:11.533Z,56.30
2018-08-13T07:12:41.343Z,56.30
2018-08-13T07:15:10.246Z,56.30
2018-08-13T07:17:38.741Z,56.80
2018-08-13T07:20:10.770Z,56.80
2018-08-13T07:22:39.571Z,57.40
2018-08-13T07:25:08.856Z,56.90
2018-08-13T07:27:37.845Z,56.50
2018-08-13T07:30:08.585Z,56.40
2018-08-13T07:32:37.610Z,56.20
2018-08-13T07:35:06.272Z,55.50
2018-08-13T07:37:35.075Z,55.60
2018-08-13T07:40:04.545Z,55.40
2018-08-13T07:42:33.188Z,54.90
2018-08-13T07:45:01.984Z,54.50
2018-08-13T07:47:31.155Z,54.40
2018-08-13T07:49:59.595Z,53.40
2018-08-13T07:52:28.106Z,54.10
2018-08-13T07:54:56.522Z,53.40
2018-08-13T07:57:25.794Z,54.00
2018-08-13T07:59:55.073Z,53.50
2018-08-13T08:02:23.678Z,53.10
2018-08-13T08:04:52.152Z,53.90
2018-08-13T08:07:20.579Z,53.40
2018-08-13T08:09:49.031Z,53.80
2018-08-13T08:12:17.593Z,54.10
2018-08-13T08:14:46.825Z,53.80
2018-08-13T08:17:16.111Z,54.60
2018-08-13T08:19:45.029Z,54.80
2018-08-13T08:22:13.623Z,54.80
2018-08-13T08:24:42.095Z,55.20
2018-08-13T08:27:10.643Z,55.00
2018-08-13T08:29:39.141Z,55.70
2018-08-13T08:32:07.692Z,55.60
2018-08-13T08:34:36.228Z,55.10
2018-08-13T08:37:04.849Z,55.00
2018-08-13T08:39:33.253Z,54.50
2018-08-13T08:42:01.792Z,54.90
2018-08-13T08:44:30.223Z,55.20
2018-08-13T08:46:58.691Z,55.60
2018-08-13T08:49:27.200Z,55.20
2018-08-13T08:51:56.913Z,55.50
2018-08-13T08:54:25.990Z,55.20
2018-08-13T08:56:54.900Z,55.30
2018-08-13T08:59:23.711Z,55.20
2018-08-13T09:01:52.334Z,55.30
2018-08-13T09:04:20.804Z,55.40
2018-08-13T09:06:49.392Z,55.50
2018-08-13T09:09:17.827Z,55.60
2018-08-13T09:11:46.370Z,55.50
2018-08-13T09:14:14.915Z,55.60
2018-08-13T09:16:46.612Z,55.70
2018-08-13T09:19:26.501Z,55.60
2018-08-13T09:23:03.991Z,55.40
2018-08-13T09:25:43.952Z,56.20
2018-08-13T09:28:24.065Z,56.20
2018-08-13T09:31:03.809Z,56.40
2018-08-13T09:33:43.664Z,56.60
2018-08-13T09:36:12.228Z,56.80
2018-08-13T09:38:41.438Z,56.40
2018-08-13T09:41:10.267Z,56.30
2018-08-13T09:43:38.849Z,55.90
2018-08-13T09:46:07.360Z,56.40
2018-08-13T09:48:35.841Z,56.60
2018-08-13T09:51:04.603Z,56.30
2018-08-13T09:53:33.186Z,56.60
2018-08-13T09:56:01.650Z,56.20
2018-08-13T09:58:30.247Z,56.40
2018-08-13T10:01:04.085Z,56.20
2018-08-13T10:03:33.670Z,56.60
2018-08-13T10:06:02.223Z,56.80
2018-08-13T10:08:30.647Z,56.70
2018-08-13T10:10:59.195Z,56.50
2018-08-13T10:13:27.899Z,56.50
2018-08-13T10:15:56.504Z,56.60
2018-08-13T10:18:24.971Z,57.00
2018-08-13T10:20:53.632Z,56.70
2018-08-13T10:23:22.127Z,56.80
2018-08-13T10:25:50.941Z,56.50
2018-08-13T10:28:19.353Z,56.70
2018-08-13T10:30:48.004Z,56.70
2018-08-13T10:33:16.472Z,56.90
2018-08-13T10:35:45.330Z,56.90
2018-08-13T10:38:14.334Z,56.80
2018-08-13T10:40:42.928Z,57.00
2018-08-13T10:43:11.777Z,57.30
2018-08-13T10:45:40.414Z,57.50
2018-08-13T10:48:08.951Z,58.10
2018-08-13T10:50:37.477Z,58.10
2018-08-13T10:53:05.948Z,57.90
2018-08-13T10:55:34.424Z,58.70
2018-08-13T10:58:03.317Z,59.00
2018-08-13T11:00:31.841Z,59.50
2018-08-13T11:03:00.483Z,60.00
2018-08-13T11:05:29.334Z,60.50
2018-08-13T11:07:57.764Z,60.00
2018-08-13T11:10:26.999Z,59.70
2018-08-13T11:12:55.704Z,59.50
2018-08-13T11:15:24.880Z,60.50
2018-08-13T11:17:53.874Z,61.20
2018-08-13T11:20:22.500Z,61.80
2018-08-13T11:22:51.079Z,62.20
2018-08-13T11:25:19.953Z,61.90
2018-08-13T11:27:48.587Z,62.30
2018-08-13T11:30:17.632Z,61.30
2018-08-13T11:32:46.353Z,61.40
2018-08-13T11:35:15.774Z,61.20
2018-08-13T11:37:44.343Z,61.40
2018-08-13T11:40:17.138Z,60.80
2018-08-13T11:42:45.707Z,60.40
2018-08-13T11:45:14.912Z,60.70
2018-08-13T11:47:43.343Z,61.40
2018-08-13T11:50:16.125Z,60.60
2018-08-13T11:52:46.881Z,60.20
2018-08-13T11:55:16.881Z,60.60
2018-08-13T11:57:46.589Z,59.80
2018-08-13T12:00:16.200Z,59.80
2018-08-13T12:02:45.868Z,59.80
2018-08-13T12:05:15.742Z,59.80
2018-08-13T12:07:45.452Z,59.80
2018-08-13T12:10:15.071Z,60.00
2018-08-13T12:12:44.114Z,59.90
2018-08-13T12:15:14.093Z,60.70
2018-08-13T12:17:43.416Z,60.50
2018-08-13T12:20:18.636Z,60.30
2018-08-13T12:22:47.200Z,60.20
2018-08-13T12:25:20.594Z,61.00
2018-08-13T12:27:49.042Z,60.90
2018-08-13T12:30:17.914Z,60.80
2018-08-13T12:32:47.507Z,62.40
2018-08-13T12:35:16.492Z,61.80
2018-08-13T12:37:45.799Z,62.50
2018-08-13T12:40:14.966Z,61.90
2018-08-13T12:42:43.511Z,61.80
2018-08-13T12:45:14.380Z,62.40
2018-08-13T12:47:43.167Z,62.90
2018-08-13T12:50:13.654Z,63.40
2018-08-13T12:52:43.540Z,64.10
2018-08-13T12:55:12.357Z,63.60
2018-08-13T12:57:41.033Z,64.10
2018-08-13T13:00:12.398Z,63.60
2018-08-13T13:02:41.678Z,63.70
2018-08-13T13:05:11.679Z,63.70
2018-08-13T13:07:40.157Z,63.40
2018-08-13T13:10:11.234Z,62.70
2018-08-13T13:12:40.603Z,62.90
2018-08-13T13:15:11.759Z,61.70
2018-08-13T13:17:40.543Z,62.40
2018-08-13T13:20:11.175Z,62.40
2018-08-13T13:22:39.624Z,62.40
2018-08-13T13:25:08.435Z,61.60
2018-08-13T13:27:37.761Z,61.30
2018-08-13T13:30:08.238Z,61.60
2018-08-13T13:32:36.662Z,61.60
2018-08-13T13:35:06.651Z,60.70
2018-08-13T13:37:36.552Z,60.50
2018-08-13T13:40:07.267Z,61.30
2018-08-13T13:42:35.755Z,60.90
2018-08-13T13:45:04.768Z,60.80
2018-08-13T13:47:33.192Z,60.70
2018-08-13T13:50:01.744Z,60.40
2018-08-13T13:52:30.181Z,60.30
2018-08-13T13:54:58.676Z,60.20
2018-08-13T13:57:27.954Z,60.20
2018-08-13T13:59:56.518Z,60.50
2018-08-13T14:02:25.646Z,60.20
2018-08-13T14:04:54.171Z,60.00
2018-08-13T14:07:22.669Z,60.10
2018-08-13T14:09:51.216Z,60.50
2018-08-13T14:12:19.692Z,61.00
2018-08-13T14:14:48.271Z,61.20
2018-08-13T14:17:17.061Z,61.10
2018-08-13T14:19:45.944Z,61.20
2018-08-13T14:22:14.744Z,62.00
2018-08-13T14:24:43.289Z,62.00
2018-08-13T14:27:12.034Z,62.10
2018-08-13T14:29:40.602Z,62.30
2018-08-13T14:32:09.364Z,62.10
2018-08-13T14:34:37.893Z,61.80
2018-08-13T14:37:06.452Z,62.00
2018-08-13T14:39:34.956Z,62.10
2018-08-13T14:42:03.786Z,61.80
2018-08-13T14:44:32.258Z,62.10
2018-08-13T14:47:01.043Z,61.90
2018-08-13T14:49:29.603Z,61.90
2018-08-13T14:51:58.070Z,61.50
2018-08-13T14:54:26.645Z,61.50
2018-08-13T14:56:55.059Z,61.70
2018-08-13T14:59:23.508Z,61.20
2018-08-13T15:01:52.265Z,60.90
2018-08-13T15:04:21.291Z,60.80
2018-08-13T15:06:49.909Z,60.70
2018-08-13T15:09:18.792Z,60.50
2018-08-13T15:11:47.901Z,60.30
2018-08-13T15:14:17.359Z,60.50
2018-08-13T15:16:46.162Z,60.90
2018-08-13T15:19:17.056Z,60.60
2018-08-13T15:21:45.775Z,60.00
2018-08-13T15:24:14.988Z,60.30
2018-08-13T15:26:43.561Z,60.20
2018-08-13T15:29:12.083Z,60.30
2018-08-13T15:31:40.520Z,60.50
2018-08-13T15:34:09.128Z,60.60
2018-08-13T15:36:37.583Z,60.40
2018-08-13T15:39:08.931Z,60.40
2018-08-13T15:41:37.509Z,60.50
2018-08-13T15:44:06.049Z,60.50
2018-08-13T15:46:34.493Z,60.40
2018-08-13T15:49:03.297Z,60.40
2018-08-13T15:51:31.814Z,60.90
2018-08-13T15:54:01.709Z,60.00
2018-08-13T15:56:30.337Z,60.10
2018-08-13T15:58:59.133Z,60.20
2018-08-13T16:01:27.670Z,60.00
2018-08-13T16:03:56.366Z,60.50
2018-08-13T16:06:24.818Z,60.50
2018-08-13T16:08:53.696Z,60.10
2018-08-13T16:11:22.190Z,60.00
2018-08-13T16:13:50.706Z,60.20
2018-08-13T16:16:19.181Z,60.10
2018-08-13T16:18:48.474Z,59.90
2018-08-13T16:21:18.047Z,60.00
2018-08-13T16:23:47.083Z,60.40
2018-08-13T16:26:15.639Z,60.60
2018-08-13T16:28:44.116Z,60.80
2018-08-13T16:31:12.975Z,60.60
2018-08-13T16:33:41.487Z,60.80
2018-08-13T16:36:10.107Z,60.70
2018-08-13T16:38:38.961Z,60.50
2018-08-13T16:41:08.826Z,60.80
2018-08-13T16:43:37.347Z,61.00
2018-08-13T16:46:05.928Z,61.10
2018-08-13T16:48:34.391Z,61.10
2018-08-13T16:51:04.156Z,61.20
2018-08-13T16:53:32.962Z,61.40
2018-08-13T16:56:01.474Z,61.20
2018-08-13T16:58:30.115Z,61.10
2018-08-13T17:00:59.647Z,61.10
2018-08-13T17:03:28.677Z,61.00
2018-08-13T17:05:57.776Z,60.20
2018-08-13T17:08:26.627Z,62.20
2018-08-13T17:10:56.545Z,62.90
2018-08-13T17:13:24.985Z,63.70
2018-08-13T17:15:53.787Z,64.20
2018-08-13T17:18:22.235Z,64.70
2018-08-13T17:20:51.791Z,65.60
2018-08-13T17:23:20.237Z,66.40
2018-08-13T17:25:48.695Z,67.50
2018-08-13T17:28:17.640Z,68.50
2018-08-13T17:30:47.166Z,69.60
2018-08-13T17:33:15.626Z,71.20
2018-08-13T17:35:44.170Z,71.90
2018-08-13T17:38:12.674Z,71.10
2018-08-13T17:40:41.240Z,71.40
2018-08-13T17:43:10.936Z,71.40
2018-08-13T17:45:39.424Z,71.50
2018-08-13T17:48:09.388Z,71.10
2018-08-13T17:50:37.965Z,72.00
2018-08-13T17:53:07.782Z,71.80
2018-08-13T17:55:36.366Z,71.90
2018-08-13T17:58:04.873Z,70.80
2018-08-13T18:00:33.460Z,70.60
2018-08-13T18:03:01.918Z,71.60
2018-08-13T18:05:30.772Z,71.00
2018-08-13T18:07:59.336Z,71.40
2018-08-13T18:10:29.841Z,71.60
2018-08-13T18:13:00.206Z,71.50
2018-08-13T18:15:28.811Z,71.60
2018-08-13T18:17:57.242Z,72.20
2018-08-13T18:20:26.081Z,72.40
2018-08-13T18:22:54.640Z,72.60
2018-08-13T18:25:23.225Z,72.40
2018-08-13T18:27:52.281Z,72.90
2018-08-13T18:30:23.718Z,74.30
2018-08-13T18:32:52.722Z,73.90
2018-08-13T18:35:21.535Z,74.00
2018-08-13T18:37:49.993Z,74.30
2018-08-13T18:40:23.782Z,74.00
2018-08-13T18:42:52.379Z,74.10
2018-08-13T18:45:20.991Z,73.90
2018-08-13T18:47:50.219Z,74.20
2018-08-13T18:50:19.867Z,74.60
2018-08-13T18:52:48.800Z,74.50
2018-08-13T18:55:18.788Z,74.60
2018-08-13T18:57:48.116Z,75.20
2018-08-13T19:00:18.776Z,75.50
2018-08-13T19:02:47.750Z,75.40
2018-08-13T19:05:18.234Z,75.40
2018-08-13T19:07:47.546Z,75.20
2018-08-13T19:10:17.441Z,75.80
2018-08-13T19:12:45.941Z,75.50
2018-08-13T19:15:18.152Z,76.10
2018-08-13T19:17:47.462Z,76.00
2018-08-13T19:20:15.934Z,76.20
2018-08-13T19:22:44.844Z,75.70
2018-08-13T19:25:16.543Z,75.80
2018-08-13T19:27:45.209Z,75.70
2018-08-13T19:30:15.693Z,75.30
2018-08-13T19:32:45.170Z,75.30
2018-08-13T19:35:13.659Z,75.50
2018-08-13T19:37:42.165Z,75.50
2018-08-13T19:40:13.019Z,75.70
2018-08-13T19:42:41.486Z,75.80
2018-08-13T19:45:11.869Z,76.60
2018-08-13T19:47:40.354Z,76.30
2018-08-13T19:50:10.376Z,76.80
2018-08-13T19:52:39.806Z,77.30
2018-08-13T19:55:09.064Z,77.80
2018-08-13T19:57:37.640Z,78.00
2018-08-13T20:00:10.968Z,77.50
2018-08-13T20:02:39.395Z,77.20
2018-08-13T20:05:09.068Z,77.50
2018-08-13T20:07:37.606Z,76.50
2018-08-13T20:10:08.484Z,77.60
2018-08-13T20:12:37.249Z,76.90
2018-08-13T20:15:06.493Z,77.10
2018-08-13T20:17:34.960Z,77.60
2018-08-13T20:20:03.587Z,76.90
2018-08-13T20:22:32.401Z,77.90
2018-08-13T20:25:00.902Z,77.70
2018-08-13T20:27:30.393Z,77.50
2018-08-13T20:29:59.614Z,77.30
2018-08-13T20:32:28.777Z,77.00
2018-08-13T20:34:57.830Z,76.60
2018-08-13T20:37:26.725Z,76.60
2018-08-13T20:39:55.516Z,77.10
2018-08-13T20:42:23.935Z,77.90
2018-08-13T20:44:52.750Z,77.80
2018-08-13T20:47:21.533Z,78.30
2018-08-13T20:49:50.106Z,77.10
2018-08-13T20:52:19.142Z,77.10
2018-08-13T20:54:48.540Z,77.40
2018-08-13T20:57:17.319Z,76.80
2018-08-13T20:59:45.814Z,77.30
2018-08-13T21:02:14.404Z,76.70
2018-08-13T21:04:42.984Z,77.20
2018-08-13T21:07:11.574Z,77.10
2018-08-13T21:09:40.581Z,77.90
2018-08-13T21:12:09.085Z,77.90
2018-08-13T21:14:37.727Z,78.30
2018-08-13T21:17:06.425Z,78.90
2018-08-13T21:19:35.098Z,78.30
2018-08-13T21:22:03.760Z,79.80
2018-08-13T21:24:34.789Z,79.30
2018-08-13T21:27:03.276Z,80.00
2018-08-13T21:29:32.032Z,79.40
2018-08-13T21:32:01.245Z,78.50
2018-08-13T21:34:29.871Z,79.00
2018-08-13T21:36:58.774Z,79.50
2018-08-13T21:39:27.791Z,79.00
2018-08-13T21:41:56.275Z,79.20
2018-08-13T21:44:24.851Z,79.10
2018-08-13T21:46:53.631Z,78.60
2018-08-13T21:49:22.565Z,78.90
2018-08-13T21:51:51.410Z,78.90
2018-08-13T21:54:19.945Z,79.30
2018-08-13T21:56:48.430Z,79.60
2018-08-13T21:59:16.948Z,80.10
2018-08-13T22:01:46.486Z,79.40
2018-08-13T22:04:16.406Z,79.50
2018-08-13T22:06:45.344Z,79.70
2018-08-13T22:09:13.969Z,79.50
2018-08-13T22:11:42.570Z,80.10
2018-08-13T22:14:11.195Z,79.30
2018-08-13T22:16:39.758Z,80.40
2018-08-13T22:19:09.470Z,79.80
2018-08-13T22:21:37.998Z,79.60
2018-08-13T22:24:17.888Z,79.60
2018-08-13T22:26:46.446Z,80.80
2018-08-13T22:29:15.156Z,81.30
2018-08-13T22:31:43.622Z,81.10
2018-08-13T22:34:12.271Z,81.10
2018-08-13T22:36:40.835Z,81.40
2018-08-13T22:39:09.830Z,80.70
2018-08-13T22:41:38.366Z,80.90
2018-08-13T22:44:06.936Z,80.70
2018-08-13T22:46:35.850Z,81.10
2018-08-13T22:49:04.622Z,81.60
2018-08-13T22:51:33.197Z,82.40
2018-08-13T22:54:01.800Z,83.30
2018-08-13T22:56:30.351Z,82.00
2018-08-13T22:58:58.863Z,82.30
2018-08-13T23:01:27.727Z,82.00
2018-08-13T23:03:56.641Z,82.30
2018-08-13T23:06:25.227Z,82.20
2018-08-13T23:08:54.213Z,81.90
2018-08-13T23:11:22.653Z,81.60
2018-08-13T23:13:51.237Z,82.10
2018-08-13T23:16:20.383Z,81.80
2018-08-13T23:18:49.677Z,82.70
2018-08-13T23:21:18.466Z,81.20
2018-08-13T23:23:47.559Z,82.00
2018-08-13T23:26:16.130Z,81.30
2018-08-13T23:28:44.684Z,82.50
2018-08-13T23:31:13.902Z,81.70
2018-08-13T23:33:42.832Z,81.90
2018-08-13T23:36:11.298Z,81.70
2018-08-13T23:38:39.959Z,82.40
2018-08-13T23:41:08.556Z,81.10
2018-08-13T23:43:37.529Z,80.70
2018-08-13T23:46:06.246Z,80.60
2018-08-13T23:48:34.813Z,80.80
2018-08-13T23:51:03.637Z,80.50
2018-08-13T23:53:32.355Z,81.20
2018-08-13T23:56:00.974Z,81.60
2018-08-13T23:58:29.909Z,81.40
